createdAt,value
2023-02-07T00:01:44.327Z,74.63
2023-02-07T00:04:13.055Z,74.46
2023-02-07T00:06:42.008Z,73.90
2023-02-07T00:09:12.579Z,73.68
2023-02-07T00:11:42.067Z,73.47
2023-02-07T00:14:12.537Z,73.35
2023-02-07T00:16:41.854Z,73.09
2023-02-07T00:19:11.255Z,73.22
2023-02-07T00:21:39.830Z,73.12
2023-02-07T00:24:08.479Z,72.71
2023-02-07T00:26:37.339Z,72.84
2023-02-07T00:29:06.380Z,72.64
2023-02-07T00:31:36.703Z,72.31
2023-02-07T00:34:08.582Z,72.34
2023-02-07T00:36:39.406Z,72.64
2023-02-07T00:39:15.299Z,72.70
2023-02-07T00:41:45.414Z,72.40
2023-02-07T00:44:14.114Z,72.43
2023-02-07T00:46:42.862Z,72.36
2023-02-07T00:49:12.040Z,72.73
2023-02-07T00:51:40.839Z,73.28
2023-02-07T00:54:09.439Z,73.25
2023-02-07T00:56:38.186Z,73.26
2023-02-07T00:59:07.319Z,73.25
2023-02-07T01:01:37.306Z,73.29
2023-02-07T01:04:06.046Z,73.65
2023-02-07T01:06:37.195Z,73.59
2023-02-07T01:09:07.106Z,73.59
2023-02-07T01:11:36.189Z,73.54
2023-02-07T01:14:04.921Z,73.48
2023-02-07T01:16:36.892Z,73.94
2023-02-07T01:19:11.627Z,74.12
2023-02-07T01:21:40.582Z,74.00
2023-02-07T01:24:10.009Z,73.77
2023-02-07T01:26:39.689Z,73.65
2023-02-07T01:29:13.555Z,73.91
2023-02-07T01:31:43.801Z,74.41
2023-02-07T01:34:14.308Z,74.17
2023-02-07T01:36:42.967Z,74.19
2023-02-07T01:39:14.198Z,74.19
2023-02-07T01:41:42.876Z,74.09
2023-02-07T01:44:24.264Z,74.51
2023-02-07T01:46:55.259Z,74.53
2023-02-07T01:49:34.463Z,74.22
2023-02-07T01:52:16.728Z,73.42
2023-02-07T01:54:51.009Z,73.66
2023-02-07T01:57:23.342Z,73.63
2023-02-07T01:59:55.543Z,73.61
2023-02-07T02:02:28.187Z,73.49
2023-02-07T02:04:59.097Z,73.50
2023-02-07T02:07:30.273Z,73.39
2023-02-07T02:10:00.507Z,73.41
2023-02-07T02:12:53.366Z,73.94
2023-02-07T02:15:58.184Z,74.19
2023-02-07T02:18:36.614Z,73.82
2023-02-07T02:21:34.747Z,73.87
2023-02-07T02:24:30.864Z,73.99
2023-02-07T02:27:24.426Z,74.56
2023-02-07T02:30:04.219Z,74.59
2023-02-07T02:32:57.179Z,74.27
2023-02-07T02:35:34.780Z,74.16
2023-02-07T02:38:06.465Z,74.27
2023-02-07T02:40:49.115Z,74.81
2023-02-07T02:43:36.541Z,74.74
2023-02-07T02:46:15.950Z,74.71
2023-02-07T02:48:45.818Z,74.59
2023-02-07T02:51:14.559Z,74.72
2023-02-07T02:53:56.054Z,75.21
2023-02-07T02:57:02.905Z,74.78
2023-02-07T02:59:31.546Z,74.91
2023-02-07T03:02:24.996Z,74.84
2023-02-07T03:05:21.965Z,74.94
2023-02-07T03:08:47.017Z,75.65
2023-02-07T03:11:20.125Z,75.47
2023-02-07T03:14:34.663Z,75.16
2023-02-07T03:17:55.145Z,74.71
2023-02-07T03:20:31.114Z,75.09
2023-02-07T03:23:03.280Z,75.62
2023-02-07T03:25:33.395Z,75.47
2023-02-07T03:28:05.224Z,75.06
2023-02-07T03:30:38.355Z,74.94
2023-02-07T03:33:11.952Z,74.43
2023-02-07T03:36:06.347Z,74.63
2023-02-07T03:38:36.302Z,75.29
2023-02-07T03:41:14.870Z,75.39
2023-02-07T03:43:44.786Z,75.78
2023-02-07T03:46:13.702Z,75.50
2023-02-07T03:48:42.536Z,75.19
2023-02-07T03:51:11.274Z,75.57
2023-02-07T03:53:39.904Z,75.86
2023-02-07T03:56:09.276Z,76.44
2023-02-07T03:58:38.030Z,77.14
2023-02-07T04:01:07.375Z,76.83
2023-02-07T04:03:38.841Z,77.02
2023-02-07T04:06:08.243Z,77.04
2023-02-07T04:08:37.025Z,77.26
2023-02-07T04:11:05.804Z,77.53
2023-02-07T04:13:34.495Z,77.83
2023-02-07T04:16:05.523Z,77.57
2023-02-07T04:18:34.781Z,77.35
2023-02-07T04:21:09.091Z,77.34
2023-02-07T04:23:38.129Z,77.04
2023-02-07T04:26:07.009Z,77.32
2023-02-07T04:28:35.937Z,77.49
2023-02-07T04:31:04.894Z,77.53
2023-02-07T04:33:33.905Z,77.59
2023-02-07T04:36:04.161Z,77.71
2023-02-07T04:38:33.171Z,77.88
2023-02-07T04:41:06.400Z,78.85
2023-02-07T04:43:37.844Z,79.84
2023-02-07T04:46:07.631Z,80.52
2023-02-07T04:48:40.391Z,81.01
2023-02-07T04:51:09.234Z,80.94
2023-02-07T04:53:38.024Z,81.20
2023-02-07T04:56:14.135Z,81.47
2023-02-07T04:58:43.044Z,82.78
2023-02-07T05:01:12.245Z,82.84
2023-02-07T05:03:41.588Z,82.02
2023-02-07T05:06:11.024Z,82.62
2023-02-07T05:08:40.142Z,82.91
2023-02-07T05:11:08.994Z,83.34
2023-02-07T05:13:39.901Z,84.18
2023-02-07T05:16:10.433Z,83.97
2023-02-07T05:18:40.733Z,83.97
2023-02-07T05:21:09.544Z,83.84
2023-02-07T05:23:38.892Z,84.58
2023-02-07T05:26:08.326Z,84.85
2023-02-07T05:28:39.399Z,85.02
2023-02-07T05:31:09.260Z,85.12
2023-02-07T05:33:38.798Z,85.56
2023-02-07T05:36:09.624Z,85.11
2023-02-07T05:38:39.179Z,85.44
2023-02-07T05:41:07.967Z,86.50
2023-02-07T05:43:36.962Z,85.97
2023-02-07T05:46:06.163Z,85.99
2023-02-07T05:48:34.943Z,85.92
2023-02-07T05:51:03.847Z,85.70
2023-02-07T05:53:32.613Z,85.40
2023-02-07T05:56:01.338Z,86.91
2023-02-07T05:58:30.087Z,86.58
2023-02-07T06:00:58.667Z,86.90
2023-02-07T06:03:27.340Z,86.34
2023-02-07T06:05:56.243Z,86.23
2023-02-07T06:08:24.873Z,86.60
2023-02-07T06:10:53.599Z,86.36
2023-02-07T06:13:23.285Z,86.55
2023-02-07T06:15:51.955Z,86.74
2023-02-07T06:18:20.524Z,86.63
2023-02-07T06:20:52.017Z,86.33
2023-02-07T06:23:23.237Z,86.79
2023-02-07T06:25:51.895Z,86.63
2023-02-07T06:28:20.726Z,87.54
2023-02-07T06:30:53.362Z,87.04
2023-02-07T06:33:22.180Z,86.66
2023-02-07T06:35:51.424Z,86.16
2023-02-07T06:38:20.055Z,86.33
2023-02-07T06:40:49.145Z,86.59
2023-02-07T06:43:17.773Z,86.02
2023-02-07T06:45:46.481Z,85.74
2023-02-07T06:48:15.156Z,85.35
2023-02-07T06:50:43.868Z,85.50
2023-02-07T06:53:12.517Z,85.57
2023-02-07T06:55:41.239Z,85.65
2023-02-07T06:58:11.007Z,85.23
2023-02-07T07:00:39.828Z,85.02
2023-02-07T07:03:15.284Z,85.38
2023-02-07T07:05:45.013Z,85.35
2023-02-07T07:08:18.316Z,85.01
2023-02-07T07:10:47.012Z,85.24
2023-02-07T07:13:15.766Z,84.96
2023-02-07T07:15:44.537Z,85.15
2023-02-07T07:18:13.668Z,85.14
2023-02-07T07:20:42.330Z,85.10
2023-02-07T07:23:10.852Z,84.75
2023-02-07T07:25:39.822Z,85.16
2023-02-07T07:28:08.750Z,85.33
2023-02-07T07:30:37.419Z,84.92
2023-02-07T07:33:07.769Z,84.42
2023-02-07T07:35:37.303Z,84.39
2023-02-07T07:38:06.288Z,84.49
2023-02-07T07:40:34.913Z,84.45
2023-02-07T07:43:03.568Z,84.54
2023-02-07T07:45:40.075Z,84.17
2023-02-07T07:48:08.705Z,83.47
2023-02-07T07:50:37.751Z,83.67
2023-02-07T07:53:06.798Z,83.95
2023-02-07T07:55:35.817Z,83.79
2023-02-07T07:58:05.280Z,83.75
2023-02-07T08:00:34.154Z,83.99
2023-02-07T08:03:02.983Z,83.73
2023-02-07T08:05:31.788Z,83.51
2023-02-07T08:08:00.496Z,83.79
2023-02-07T08:10:29.114Z,84.38
2023-02-07T08:12:58.254Z,84.27
2023-02-07T08:15:26.936Z,84.33
2023-02-07T08:17:55.761Z,83.73
2023-02-07T08:20:24.831Z,83.37
2023-02-07T08:22:53.832Z,83.37
2023-02-07T08:25:22.398Z,82.95
2023-02-07T08:27:50.991Z,83.30
2023-02-07T08:30:20.024Z,83.06
2023-02-07T08:32:48.801Z,82.77
2023-02-07T08:35:18.381Z,82.44
2023-02-07T08:37:47.210Z,82.32
2023-02-07T08:40:16.443Z,82.08
2023-02-07T08:42:45.881Z,82.16
2023-02-07T08:45:16.266Z,82.04
2023-02-07T08:47:46.490Z,81.70
2023-02-07T08:50:16.845Z,81.63
2023-02-07T08:52:46.115Z,81.47
2023-02-07T08:55:15.183Z,80.77
2023-02-07T08:57:45.502Z,80.76
2023-02-07T09:00:15.543Z,80.88
2023-02-07T09:02:44.602Z,81.18
2023-02-07T09:05:13.349Z,81.01
2023-02-07T09:07:42.080Z,80.87
2023-02-07T09:10:11.228Z,80.56
2023-02-07T09:12:40.080Z,80.09
2023-02-07T09:15:09.693Z,80.47
2023-02-07T09:17:38.883Z,81.02
2023-02-07T09:20:08.889Z,81.04
2023-02-07T09:22:57.702Z,80.67
2023-02-07T09:25:26.548Z,80.56
2023-02-07T09:27:56.106Z,81.05
2023-02-07T09:30:24.829Z,81.55
2023-02-07T09:32:53.608Z,81.98
2023-02-07T09:35:22.307Z,81.82
2023-02-07T09:37:54.540Z,81.58
2023-02-07T09:40:23.790Z,81.62
2023-02-07T09:43:24.444Z,81.81
2023-02-07T09:45:59.342Z,81.61
2023-02-07T09:48:45.210Z,81.49
2023-02-07T09:51:21.281Z,80.99
2023-02-07T09:54:01.404Z,81.28
2023-02-07T09:56:31.448Z,81.28
2023-02-07T09:59:19.398Z,81.63
2023-02-07T10:01:53.873Z,82.15
2023-02-07T10:04:42.498Z,81.87
2023-02-07T10:07:13.506Z,82.68
2023-02-07T10:09:46.910Z,82.86
2023-02-07T10:13:02.508Z,82.57
2023-02-07T10:15:37.144Z,82.46
2023-02-07T10:18:20.125Z,82.34
2023-02-07T10:21:05.659Z,82.42
2023-02-07T10:24:09.128Z,82.36
2023-02-07T10:26:58.606Z,82.32
2023-02-07T10:30:01.768Z,81.82
2023-02-07T10:32:38.628Z,81.29
2023-02-07T10:35:25.585Z,81.64
2023-02-07T10:37:59.827Z,81.55
2023-02-07T10:40:45.077Z,81.73
2023-02-07T10:43:34.263Z,81.93
2023-02-07T10:46:09.149Z,81.59
2023-02-07T10:48:39.358Z,81.90
2023-02-07T10:51:35.033Z,81.65
2023-02-07T10:54:09.258Z,81.88
2023-02-07T10:56:44.602Z,82.70
2023-02-07T10:59:49.405Z,83.45
2023-02-07T11:02:33.100Z,83.46
2023-02-07T11:05:17.146Z,83.67
2023-02-07T11:08:14.622Z,83.91
2023-02-07T11:10:46.660Z,83.91
2023-02-07T11:13:29.233Z,83.57
2023-02-07T11:16:08.131Z,83.54
2023-02-07T11:18:46.915Z,83.20
2023-02-07T11:21:21.580Z,82.99
2023-02-07T11:23:51.443Z,82.67
2023-02-07T11:26:22.380Z,82.84
2023-02-07T11:29:06.990Z,82.90
2023-02-07T11:31:38.399Z,82.70
2023-02-07T11:34:22.515Z,82.43
2023-02-07T11:36:51.647Z,82.67
2023-02-07T11:39:23.777Z,82.59
2023-02-07T11:42:01.979Z,82.76
2023-02-07T11:44:31.800Z,82.73
2023-02-07T11:47:05.554Z,82.47
2023-02-07T11:49:43.582Z,82.41
2023-02-07T11:52:13.617Z,82.82
2023-02-07T11:54:48.860Z,83.03
2023-02-07T11:57:20.066Z,82.93
2023-02-07T11:59:55.799Z,83.17
2023-02-07T12:02:27.676Z,83.57
2023-02-07T12:05:12.330Z,83.37
2023-02-07T12:07:48.927Z,82.54
2023-02-07T12:10:30.180Z,82.17
2023-02-07T12:16:33.291Z,82.67
2023-02-07T12:19:19.353Z,82.56
2023-02-07T12:22:22.339Z,82.64
2023-02-07T12:25:16.819Z,82.77
2023-02-07T12:27:49.304Z,83.18
2023-02-07T12:30:43.450Z,82.81
2023-02-07T12:33:35.857Z,83.15
2023-02-07T12:36:31.930Z,83.38
2023-02-07T12:39:34.356Z,82.69
2023-02-07T12:42:38.063Z,83.16
2023-02-07T12:45:13.878Z,82.82
2023-02-07T12:47:51.351Z,82.70
2023-02-07T12:50:59.731Z,82.79
2023-02-07T12:54:17.382Z,82.81
2023-02-07T12:57:38.886Z,82.64
2023-02-07T13:00:29.039Z,82.94
2023-02-07T13:03:16.601Z,84.04
2023-02-07T13:06:34.043Z,83.74
2023-02-07T13:09:26.095Z,83.28
2023-02-07T13:12:18.184Z,83.14
2023-02-07T13:15:46.386Z,84.01
2023-02-07T13:18:40.560Z,84.50
2023-02-07T13:21:17.214Z,84.21
2023-02-07T13:23:48.594Z,84.51
2023-02-07T13:26:27.910Z,85.02
2023-02-07T13:29:16.898Z,84.38
2023-02-07T13:31:59.138Z,85.11
2023-02-07T13:34:36.070Z,85.36
2023-02-07T13:37:16.363Z,85.53
2023-02-07T13:40:21.224Z,85.42
2023-02-07T13:44:01.642Z,84.80
2023-02-07T13:46:56.625Z,85.16
2023-02-07T13:49:34.104Z,85.09
2023-02-07T13:52:25.675Z,85.51
2023-02-07T13:55:06.223Z,85.69
2023-02-07T13:57:53.257Z,85.96
2023-02-07T14:04:12.364Z,86.61
2023-02-07T14:07:11.961Z,86.58
2023-02-07T14:09:47.137Z,86.23
2023-02-07T14:12:26.494Z,86.42
2023-02-07T14:15:03.780Z,87.03
2023-02-07T14:17:32.412Z,87.17
2023-02-07T14:20:03.590Z,87.25
2023-02-07T14:22:53.299Z,87.21
2023-02-07T14:25:32.078Z,87.73
2023-02-07T14:28:17.884Z,87.97
2023-02-07T14:30:49.703Z,87.90
2023-02-07T14:34:14.840Z,87.72
2023-02-07T14:36:43.755Z,88.10
2023-02-07T14:39:12.256Z,88.63
2023-02-07T14:41:44.180Z,89.00
2023-02-07T14:44:35.773Z,89.08
2023-02-07T14:47:08.482Z,89.54
2023-02-07T14:49:48.698Z,89.26
2023-02-07T14:52:29.422Z,89.40
2023-02-07T14:55:12.999Z,89.18
2023-02-07T14:58:07.307Z,89.33
2023-02-07T15:00:49.683Z,89.82
2023-02-07T15:03:21.457Z,89.52
2023-02-07T15:06:02.022Z,90.01
2023-02-07T15:08:35.451Z,89.91
2023-02-07T15:11:11.717Z,90.71
2023-02-07T15:13:50.286Z,90.61
2023-02-07T15:16:30.211Z,90.60
2023-02-07T15:19:04.239Z,90.86
2023-02-07T15:21:42.441Z,90.78
2023-02-07T15:24:22.404Z,90.98
2023-02-07T15:26:57.506Z,91.45
2023-02-07T15:29:34.647Z,91.40
2023-02-07T15:32:43.934Z,91.43
2023-02-07T15:35:21.095Z,91.26
2023-02-07T15:37:51.044Z,91.41
2023-02-07T15:40:26.402Z,91.52
2023-02-07T15:42:59.315Z,91.60
2023-02-07T15:45:32.874Z,91.92
2023-02-07T15:48:09.298Z,91.40
2023-02-07T15:50:38.927Z,91.31
2023-02-07T15:53:08.804Z,91.45
2023-02-07T15:55:45.094Z,91.74
2023-02-07T15:58:39.066Z,91.45
2023-02-07T16:01:24.380Z,91.88
2023-02-07T16:03:56.283Z,91.42
2023-02-07T16:06:31.097Z,91.48
2023-02-07T16:09:40.736Z,91.59
2023-02-07T16:12:50.645Z,91.63
2023-02-07T16:15:59.237Z,92.03
2023-02-07T16:18:46.502Z,92.34
2023-02-07T16:21:24.694Z,92.34
2023-02-07T16:24:07.264Z,93.02
2023-02-07T16:26:37.070Z,92.79
2023-02-07T16:29:07.704Z,92.94
2023-02-07T16:31:36.703Z,93.54
2023-02-07T16:34:05.501Z,93.23
2023-02-07T16:36:34.038Z,93.26
2023-02-07T16:39:02.604Z,93.18
2023-02-07T16:41:35.549Z,93.10
2023-02-07T16:44:08.312Z,93.07
2023-02-07T16:46:37.030Z,93.14
2023-02-07T16:49:21.383Z,93.17
2023-02-07T16:51:50.076Z,92.98
2023-02-07T16:54:19.892Z,93.08
2023-02-07T16:56:56.006Z,92.81
2023-02-07T16:59:25.142Z,93.04
2023-02-07T17:01:54.726Z,93.15
2023-02-07T17:04:23.616Z,93.00
2023-02-07T17:06:52.325Z,93.06
2023-02-07T17:09:26.010Z,93.35
2023-02-07T17:11:55.066Z,93.35
2023-02-07T17:14:23.685Z,93.03
2023-02-07T17:16:52.358Z,93.42
2023-02-07T17:19:24.080Z,93.29
2023-02-07T17:21:53.353Z,93.30
2023-02-07T17:24:21.936Z,93.48
2023-02-07T17:26:54.621Z,93.25
2023-02-07T17:29:24.018Z,93.16
2023-02-07T17:31:52.729Z,92.75
2023-02-07T17:34:21.696Z,92.26
2023-02-07T17:36:51.192Z,92.34
2023-02-07T17:39:20.450Z,92.10
2023-02-07T17:41:49.067Z,91.76
2023-02-07T17:44:21.575Z,91.19
2023-02-07T17:46:50.454Z,90.96
2023-02-07T17:49:19.231Z,91.10
2023-02-07T17:51:47.940Z,91.16
2023-02-07T17:54:16.605Z,91.14
2023-02-07T17:56:45.304Z,91.36
2023-02-07T17:59:24.733Z,90.65
2023-02-07T18:01:54.141Z,90.55
2023-02-07T18:04:24.102Z,90.00
2023-02-07T18:06:53.244Z,88.92
2023-02-07T18:09:23.401Z,88.45
2023-02-07T18:11:52.943Z,87.68
2023-02-07T18:14:21.642Z,87.11
2023-02-07T18:16:50.660Z,86.43
2023-02-07T18:19:20.223Z,85.67
2023-02-07T18:21:49.819Z,84.98
2023-02-07T18:24:19.121Z,84.41
2023-02-07T18:26:47.943Z,83.60
2023-02-07T18:29:17.525Z,83.85
2023-02-07T18:31:46.711Z,82.58
2023-02-07T18:34:19.715Z,81.62
2023-02-07T18:36:49.430Z,80.09
2023-02-07T18:39:19.076Z,78.64
2023-02-07T18:41:48.233Z,78.15
2023-02-07T18:44:17.286Z,77.04
2023-02-07T18:46:46.527Z,77.02
2023-02-07T18:49:16.750Z,76.77
2023-02-07T18:51:47.136Z,76.38
2023-02-07T18:54:25.585Z,76.41
2023-02-07T18:57:12.151Z,76.05
2023-02-07T18:59:41.780Z,75.94
2023-02-07T19:02:14.924Z,74.76
2023-02-07T19:05:14.418Z,74.23
2023-02-07T19:07:51.127Z,74.28
2023-02-07T19:10:20.204Z,74.18
2023-02-07T19:13:09.051Z,73.33
2023-02-07T19:15:46.485Z,74.11
2023-02-07T19:18:19.420Z,73.80
2023-02-07T19:20:50.548Z,73.53
2023-02-07T19:23:46.623Z,72.75
2023-02-07T19:26:17.013Z,73.37
2023-02-07T19:28:48.992Z,72.98
2023-02-07T19:31:30.589Z,74.05
2023-02-07T19:34:05.472Z,72.82
2023-02-07T19:36:44.469Z,71.60
2023-02-07T19:39:29.626Z,70.98
2023-02-07T19:42:02.807Z,71.01
2023-02-07T19:44:34.615Z,70.46
2023-02-07T19:47:10.308Z,70.13
2023-02-07T19:49:39.988Z,69.93
2023-02-07T19:52:09.591Z,69.29
2023-02-07T19:54:38.502Z,69.11
2023-02-07T19:57:07.976Z,69.19
2023-02-07T19:59:38.172Z,69.40
2023-02-07T20:02:11.758Z,69.36
2023-02-07T20:04:41.825Z,69.71
2023-02-07T20:07:11.996Z,69.47
2023-02-07T20:09:42.812Z,69.58
2023-02-07T20:12:17.475Z,70.07
2023-02-07T20:14:49.312Z,70.15
2023-02-07T20:17:22.781Z,70.53
2023-02-07T20:19:54.287Z,70.55
2023-02-07T20:22:25.389Z,70.42
2023-02-07T20:24:56.669Z,70.15
2023-02-07T20:27:26.952Z,69.82
2023-02-07T20:30:01.590Z,69.81
2023-02-07T20:32:31.709Z,70.32
2023-02-07T20:35:02.994Z,70.48
2023-02-07T20:37:34.609Z,70.52
2023-02-07T20:40:05.137Z,70.85
2023-02-07T20:42:34.245Z,71.41
2023-02-07T20:45:12.027Z,71.59
2023-02-07T20:47:46.158Z,71.95
2023-02-07T20:50:14.889Z,72.31
2023-02-07T20:52:43.587Z,72.89
2023-02-07T20:55:13.134Z,72.80
2023-02-07T20:57:42.306Z,73.08
2023-02-07T21:00:14.984Z,73.01
2023-02-07T21:02:44.348Z,73.09
2023-02-07T21:05:13.289Z,73.53
2023-02-07T21:07:42.930Z,74.34
2023-02-07T21:10:12.202Z,74.17
2023-02-07T21:12:41.194Z,74.62
2023-02-07T21:15:10.861Z,74.78
2023-02-07T21:17:39.848Z,74.97
2023-02-07T21:20:10.080Z,75.63
2023-02-07T21:22:39.032Z,75.64
2023-02-07T21:25:09.653Z,75.34
2023-02-07T21:27:39.820Z,75.44
2023-02-07T21:30:10.416Z,75.60
2023-02-07T21:32:47.323Z,75.59
2023-02-07T21:35:17.279Z,75.65
2023-02-07T21:37:46.588Z,75.72
2023-02-07T21:40:18.620Z,75.35
2023-02-07T21:42:48.060Z,75.12
2023-02-07T21:45:16.622Z,74.86
2023-02-07T21:47:45.545Z,75.24
2023-02-07T21:50:14.216Z,75.42
2023-02-07T21:54:02.622Z,74.57
2023-02-07T21:56:35.095Z,74.59
2023-02-07T21:59:06.325Z,74.12
2023-02-07T22:01:36.824Z,74.29
2023-02-07T22:04:07.271Z,74.57
2023-02-07T22:06:38.049Z,74.24
2023-02-07T22:09:06.694Z,74.20
2023-02-07T22:11:36.490Z,73.63
2023-02-07T22:14:05.271Z,72.55
2023-02-07T22:16:35.062Z,72.53
2023-02-07T22:19:06.578Z,72.33
2023-02-07T22:21:37.583Z,72.44
2023-02-07T22:24:07.255Z,72.54
2023-02-07T22:26:36.032Z,72.05
2023-02-07T22:29:06.404Z,72.00
2023-02-07T22:31:38.981Z,71.69
2023-02-07T22:34:11.320Z,71.17
2023-02-07T22:36:43.331Z,70.42
2023-02-07T22:39:14.684Z,70.62
2023-02-07T22:41:43.953Z,70.57
2023-02-07T22:44:12.576Z,70.72
2023-02-07T22:46:41.195Z,70.42
2023-02-07T22:49:09.798Z,70.49
2023-02-07T22:51:38.431Z,70.34
2023-02-07T22:54:10.643Z,70.37
2023-02-07T22:56:39.389Z,70.19
2023-02-07T22:59:08.784Z,70.49
2023-02-07T23:01:40.702Z,70.14
2023-02-07T23:04:15.753Z,69.91
2023-02-07T23:06:46.751Z,69.98
2023-02-07T23:09:16.064Z,69.84
2023-02-07T23:11:45.129Z,69.83
2023-02-07T23:14:14.038Z,69.78
2023-02-07T23:16:43.897Z,69.80
2023-02-07T23:19:18.179Z,69.67
2023-02-07T23:21:46.806Z,69.65
2023-02-07T23:24:15.874Z,69.38
2023-02-07T23:26:44.613Z,69.46
2023-02-07T23:29:13.280Z,69.59
2023-02-07T23:31:42.129Z,69.81
2023-02-07T23:34:11.010Z,69.77
2023-02-07T23:36:40.105Z,69.98
2023-02-07T23:39:09.256Z,69.97
2023-02-07T23:41:38.514Z,69.94
2023-02-07T23:44:07.551Z,69.97
2023-02-07T23:46:36.323Z,69.75
2023-02-07T23:49:05.504Z,69.77
2023-02-07T23:51:34.201Z,69.98
2023-02-07T23:54:04.178Z,70.27
2023-02-07T23:56:33.297Z,70.15
2023-02-07T23:59:01.992Z,69.98
